Time,TemperatureF,DewpointF,PressureIn,WindDirection,WindDirectionDegrees,WindSpeedMPH,WindSpeedGustMPH,Humidity,HourlyPrecipIn,Conditions,Clouds,dailyrainin,SoftwareType,DateUTC
2013-10-29 00:01:00,50.0,43.0,-100.00,SSW,212,8.0,14.0,76,0.00,,,0.00,,2013-10-29 07:01:00,
2013-10-29 00:11:00,50.0,43.0,-100.00,SSW,212,8.0,14.0,76,0.00,,,0.00,,2013-10-29 07:11:00,
2013-10-29 00:44:00,51.0,44.0,-100.00,South,183,9.0,15.0,76,0.00,,,0.00,,2013-10-29 07:44:00,
2013-10-29 00:55:00,51.0,44.0,-100.00,South,183,9.0,15.0,76,0.00,,,0.00,,2013-10-29 07:55:00,
2013-10-29 01:05:00,51.0,44.0,-100.00,South,183,9.0,15.0,76,0.00,,,0.00,,2013-10-29 08:05:00,
2013-10-29 01:13:00,51.0,44.0,-100.00,South,183,9.0,15.0,76,0.00,,,0.00,,2013-10-29 08:13:00,
2013-10-29 01:42:00,50.0,43.0,-100.00,South,170,13.0,18.0,76,0.00,,,0.00,,2013-10-29 08:42:00,
2013-10-29 01:52:00,50.0,43.0,-100.00,South,170,13.0,18.0,76,0.00,,,0.00,,2013-10-29 08:52:00,
2013-10-29 02:02:00,50.0,43.0,-100.00,South,170,13.0,18.0,76,0.00,,,0.00,,2013-10-29 09:02:00,
2013-10-29 02:11:00,50.0,43.0,-100.00,South,170,13.0,18.0,76,0.00,,,0.00,,2013-10-29 09:11:00,
2013-10-29 02:43:00,50.0,43.0,-100.00,South,186,11.0,21.0,78,0.00,,,0.00,,2013-10-29 09:43:00,
2013-10-29 02:53:00,50.0,43.0,-100.00,South,186,11.0,21.0,78,0.00,,,0.00,,2013-10-29 09:53:00,
2013-10-29 03:03:00,50.0,43.0,-100.00,South,186,11.0,21.0,78,0.00,,,0.00,,2013-10-29 10:03:00,
2013-10-29 03:13:00,50.0,43.0,-100.00,South,186,11.0,21.0,78,0.00,,,0.00,,2013-10-29 10:13:00,
2013-10-29 03:42:00,50.0,42.0,-100.00,SSW,195,11.0,17.0,73,0.00,,,0.00,,2013-10-29 10:42:00,
2013-10-29 03:53:00,50.0,42.0,-100.00,SSW,195,11.0,17.0,73,0.00,,,0.00,,2013-10-29 10:53:00,
2013-10-29 04:03:00,50.0,42.0,-100.00,SSW,195,11.0,17.0,73,0.00,,,0.00,,2013-10-29 11:03:00,
2013-10-29 04:12:00,50.0,42.0,-100.00,SSW,195,11.0,17.0,73,0.00,,,0.00,,2013-10-29 11:12:00,
2013-10-29 04:42:00,51.0,42.0,-100.00,South,175,11.0,17.0,72,0.00,,,0.00,,2013-10-29 11:42:00,
2013-10-29 04:52:00,51.0,42.0,-100.00,South,175,11.0,17.0,72,0.00,,,0.00,,2013-10-29 11:52:00,
2013-10-29 05:01:00,51.0,42.0,-100.00,South,175,11.0,17.0,72,0.00,,,0.00,,2013-10-29 12:01:00,
2013-10-29 05:11:00,51.0,42.0,-100.00,South,175,11.0,17.0,72,0.00,,,0.00,,2013-10-29 12:11:00,
2013-10-29 05:52:00,51.0,42.0,-100.00,South,178,8.0,13.0,72,0.00,,,0.00,,2013-10-29 12:52:00,
2013-10-29 06:02:00,51.0,42.0,-100.00,South,178,8.0,13.0,72,0.00,,,0.00,,2013-10-29 13:02:00,
2013-10-29 06:11:00,51.0,42.0,-100.00,South,178,8.0,13.0,72,0.00,,,0.00,,2013-10-29 13:11:00,
2013-10-29 06:42:00,50.0,43.0,-100.00,SSW,200,7.0,13.0,77,0.00,,,0.00,,2013-10-29 13:42:00,
2013-10-29 06:52:00,50.0,43.0,-100.00,SSW,200,7.0,13.0,77,0.00,,,0.00,,2013-10-29 13:52:00,
2013-10-29 07:02:00,50.0,43.0,-100.00,SSW,200,7.0,13.0,77,0.00,,,0.00,,2013-10-29 14:02:00,
2013-10-29 07:11:00,50.0,43.0,-100.00,SSW,200,7.0,13.0,77,0.00,,,0.00,,2013-10-29 14:11:00,
2013-10-29 07:42:00,50.0,43.0,-100.00,SSW,210,6.0,11.0,77,0.00,,,0.00,,2013-10-29 14:42:00,
2013-10-29 07:52:00,50.0,43.0,-100.00,SSW,210,6.0,11.0,77,0.00,,,0.00,,2013-10-29 14:52:00,
2013-10-29 08:02:00,50.0,43.0,-100.00,SSW,210,6.0,11.0,77,0.00,,,0.00,,2013-10-29 15:02:00,
2013-10-29 08:11:00,50.0,43.0,-100.00,SSW,210,6.0,11.0,77,0.00,,,0.00,,2013-10-29 15:11:00,
2013-10-29 08:44:00,50.0,42.0,-100.00,SSW,200,5.0,10.0,73,0.00,,,-99.99,,2013-10-29 15:44:00,
2013-10-29 08:54:00,50.0,42.0,-100.00,SSW,200,5.0,10.0,73,0.00,,,-99.99,,2013-10-29 15:54:00,
2013-10-29 09:03:00,50.0,42.0,-100.00,SSW,200,5.0,10.0,73,0.00,,,-99.99,,2013-10-29 16:03:00,
2013-10-29 09:12:00,50.0,42.0,-100.00,SSW,200,5.0,10.0,73,0.00,,,-99.99,,2013-10-29 16:12:00,
2013-10-29 09:43:00,51.0,42.0,-100.00,SSE,165,8.0,13.0,72,0.00,,,0.00,,2013-10-29 16:43:00,
2013-10-29 09:53:00,51.0,42.0,-100.00,SSE,165,8.0,13.0,72,0.00,,,0.00,,2013-10-29 16:53:00,
2013-10-29 10:02:00,51.0,42.0,-100.00,SSE,165,8.0,13.0,72,0.00,,,0.00,,2013-10-29 17:02:00,
2013-10-29 10:12:00,51.0,42.0,-100.00,SSE,165,8.0,13.0,72,0.00,,,0.00,,2013-10-29 17:12:00,
2013-10-29 10:42:00,52.0,43.0,-100.00,WSW,254,4.0,12.0,70,0.00,,,0.00,,2013-10-29 17:42:00,
2013-10-29 10:52:00,52.0,43.0,-100.00,WSW,254,4.0,12.0,70,0.00,,,0.00,,2013-10-29 17:52:00,
2013-10-29 11:01:00,52.0,43.0,-100.00,WSW,254,4.0,12.0,70,0.00,,,0.00,,2013-10-29 18:01:00,
2013-10-29 11:12:00,52.0,43.0,-100.00,WSW,254,4.0,12.0,70,0.00,,,0.00,,2013-10-29 18:12:00,
2013-10-29 11:42:00,53.0,45.0,-100.00,SW,236,6.0,32.0,73,0.00,,,0.00,,2013-10-29 18:42:00,
2013-10-29 11:52:00,53.0,45.0,-100.00,SW,236,6.0,32.0,73,0.00,,,0.00,,2013-10-29 18:52:00,
2013-10-29 12:02:00,53.0,45.0,-100.00,SW,236,6.0,32.0,73,0.00,,,0.00,,2013-10-29 19:02:00,
2013-10-29 12:11:00,53.0,45.0,-100.00,SW,236,6.0,32.0,73,0.00,,,0.00,,2013-10-29 19:11:00,
2013-10-29 12:42:00,54.0,44.0,-100.00,WSW,240,10.0,41.0,69,0.00,,,0.00,,2013-10-29 19:42:00,
2013-10-29 12:53:00,54.0,44.0,-100.00,WSW,240,10.0,41.0,69,0.00,,,0.00,,2013-10-29 19:53:00,
2013-10-29 13:02:00,54.0,44.0,-100.00,WSW,240,10.0,41.0,69,0.00,,,0.00,,2013-10-29 20:02:00,
2013-10-29 13:11:00,54.0,44.0,-100.00,WSW,240,10.0,41.0,69,0.00,,,0.00,,2013-10-29 20:11:00,
2013-10-29 13:43:00,56.0,42.0,-100.00,WSW,237,13.0,21.0,59,0.00,,,0.00,,2013-10-29 20:43:00,
2013-10-29 13:52:00,56.0,42.0,-100.00,WSW,237,13.0,21.0,59,0.00,,,0.00,,2013-10-29 20:52:00,
2013-10-29 14:01:00,56.0,42.0,-100.00,WSW,237,13.0,21.0,59,0.00,,,0.00,,2013-10-29 21:01:00,
2013-10-29 14:11:00,56.0,42.0,-100.00,WSW,237,13.0,21.0,59,0.00,,,0.00,,2013-10-29 21:11:00,
2013-10-29 14:43:00,57.0,42.0,-100.00,WSW,240,13.0,23.0,57,0.00,,,0.00,,2013-10-29 21:43:00,
2013-10-29 14:54:00,57.0,42.0,-100.00,WSW,240,13.0,23.0,57,0.00,,,0.00,,2013-10-29 21:54:00,
2013-10-29 15:03:00,57.0,42.0,-100.00,WSW,240,13.0,23.0,57,0.00,,,0.00,,2013-10-29 22:03:00,
2013-10-29 15:13:00,57.0,42.0,-100.00,WSW,240,13.0,23.0,57,0.00,,,0.00,,2013-10-29 22:13:00,
2013-10-29 15:53:00,58.0,42.0,-100.00,WSW,237,14.0,20.0,55,0.00,,,0.00,,2013-10-29 22:53:00,
2013-10-29 16:03:00,58.0,42.0,-100.00,WSW,237,14.0,20.0,55,0.00,,,0.00,,2013-10-29 23:03:00,
2013-10-29 16:12:00,58.0,42.0,-100.00,WSW,237,14.0,20.0,55,0.00,,,0.00,,2013-10-29 23:12:00,
2013-10-29 16:43:00,58.0,42.0,-100.00,WSW,237,13.0,22.0,55,0.00,,,0.00,,2013-10-29 23:43:00,
2013-10-29 16:53:00,58.0,42.0,-100.00,WSW,237,13.0,22.0,55,0.00,,,0.00,,2013-10-29 23:53:00,
2013-10-29 17:01:00,58.0,42.0,-100.00,WSW,237,13.0,22.0,55,0.00,,,0.00,,2013-10-30 00:01:00,
2013-10-29 17:11:00,58.0,42.0,-100.00,WSW,237,13.0,22.0,55,0.00,,,0.00,,2013-10-30 00:11:00,
2013-10-29 17:42:00,56.0,41.0,-100.00,WSW,242,14.0,20.0,58,0.00,,,0.00,,2013-10-30 00:42:00,
2013-10-29 17:52:00,56.0,41.0,-100.00,WSW,242,14.0,20.0,58,0.00,,,0.00,,2013-10-30 00:52:00,
2013-10-29 18:01:00,56.0,41.0,-100.00,WSW,242,14.0,20.0,58,0.00,,,0.00,,2013-10-30 01:01:00,
2013-10-29 18:11:00,56.0,41.0,-100.00,WSW,242,14.0,20.0,58,0.00,,,0.00,,2013-10-30 01:11:00,
2013-10-29 18:42:00,53.0,41.0,-100.00,WSW,244,11.0,18.0,63,0.00,,,0.00,,2013-10-30 01:42:00,
2013-10-29 18:52:00,53.0,41.0,-100.00,WSW,244,11.0,18.0,63,0.00,,,0.00,,2013-10-30 01:52:00,
2013-10-29 19:02:00,53.0,41.0,-100.00,WSW,244,11.0,18.0,63,0.00,,,0.00,,2013-10-30 02:02:00,
2013-10-29 19:11:00,53.0,41.0,-100.00,WSW,244,11.0,18.0,63,0.00,,,0.00,,2013-10-30 02:11:00,
2013-10-29 19:42:00,51.0,42.0,-100.00,SW,236,9.0,14.0,72,0.00,,,0.00,,2013-10-30 02:42:00,
2013-10-29 19:52:00,51.0,42.0,-100.00,SW,236,9.0,14.0,72,0.00,,,0.00,,2013-10-30 02:52:00,
2013-10-29 20:02:00,51.0,42.0,-100.00,SW,236,9.0,14.0,72,0.00,,,0.00,,2013-10-30 03:02:00,
2013-10-29 20:11:00,51.0,42.0,-100.00,SW,236,9.0,14.0,72,0.00,,,0.00,,2013-10-30 03:11:00,
2013-10-29 20:44:00,50.0,43.0,-100.00,SW,215,7.0,10.0,76,0.00,,,0.00,,2013-10-30 03:44:00,
2013-10-29 20:54:00,50.0,43.0,-100.00,SW,215,7.0,10.0,76,0.00,,,0.00,,2013-10-30 03:54:00,
2013-10-29 21:03:00,50.0,43.0,-100.00,SW,215,7.0,10.0,76,0.00,,,0.00,,2013-10-30 04:03:00,
2013-10-29 21:13:00,50.0,43.0,-100.00,SW,215,7.0,10.0,76,0.00,,,0.00,,2013-10-30 04:13:00,
2013-10-29 21:44:00,49.0,42.0,-100.00,SW,220,8.0,11.0,77,0.00,,,0.00,,2013-10-30 04:44:00,
2013-10-29 21:53:00,49.0,42.0,-100.00,SW,220,8.0,11.0,77,0.00,,,0.00,,2013-10-30 04:53:00,
2013-10-29 22:03:00,49.0,42.0,-100.00,SW,220,8.0,11.0,77,0.00,,,0.00,,2013-10-30 05:03:00,
2013-10-29 22:13:00,49.0,42.0,-100.00,SW,220,8.0,11.0,77,0.00,,,0.00,,2013-10-30 05:13:00,
2013-10-29 22:43:00,48.0,43.0,-100.00,SW,217,7.0,11.0,83,0.00,,,0.00,,2013-10-30 05:43:00,
2013-10-29 22:53:00,48.0,43.0,-100.00,SW,217,7.0,11.0,83,0.00,,,0.00,,2013-10-30 05:53:00,
2013-10-29 23:02:00,48.0,43.0,-100.00,SW,217,7.0,11.0,83,0.00,,,0.00,,2013-10-30 06:02:00,
2013-10-29 23:13:00,48.0,43.0,-100.00,SW,217,7.0,11.0,83,0.00,,,0.00,,2013-10-30 06:13:00,
2013-10-29 23:42:00,48.0,43.0,-100.00,SSW,199,5.0,8.0,83,0.00,,,-99.99,,2013-10-30 06:42:00,
2013-10-29 23:52:00,48.0,43.0,-100.00,SSW,199,5.0,8.0,83,0.00,,,-99.99,,2013-10-30 06:52:00,